Time;durP1;ratioP1;P1;durP2;ratioP2;P2;SDS_P1;SDS_P2;PMS_P1;PMS_P2;Temp;Humidity;BMP_temperature;BMP_pressure;BME280_temperature;BME280_humidity;BME280_pressure;Samples;Min_cycle;Max_cycle;Signal;HPM_P1;HPM_P2
2023/04/07 00:01:35;;;;;;;10.93;7.45;;;;;;;;;;5003930;28;20038;-52
2023/04/07 00:04:00;;;;;;;13.60;8.10;;;;;;;;;;5014288;28;20029;-52
2023/04/07 00:06:26;;;;;;;14.35;8.07;;;;;;;;;;5016146;28;20033;-52
2023/04/07 00:08:51;;;;;;;12.10;7.30;;;;;;;;;;5017040;28;20026;-48
2023/04/07 00:11:17;;;;;;;12.48;7.97;;;;;;;;;;5003506;28;20041;-52
2023/04/07 00:13:42;;;;;;;14.07;8.57;;;;;;;;;;5017837;28;20041;-56
2023/04/07 00:16:07;;;;;;;14.20;8.32;;;;;;;;;;5015914;28;20100;-56
2023/04/07 00:18:33;;;;;;;13.20;8.38;;;;;;;;;;4996990;28;20490;-57
2023/04/07 00:20:58;;;;;;;14.57;8.60;;;;;;;;;;5016009;28;20107;-53
2023/04/07 00:23:24;;;;;;;13.10;8.77;;;;;;;;;;5014522;28;20037;-55
2023/04/07 00:25:49;;;;;;;14.32;8.55;;;;;;;;;;5015576;28;20060;-55
2023/04/07 00:28:15;;;;;;;14.95;8.50;;;;;;;;;;5020842;28;20025;-55
2023/04/07 00:30:40;;;;;;;13.40;9.20;;;;;;;;;;5001083;28;20625;-54
2023/04/07 00:33:05;;;;;;;15.73;9.13;;;;;;;;;;5015417;28;20045;-54
2023/04/07 00:35:31;;;;;;;14.45;8.60;;;;;;;;;;5015099;28;20057;-55
2023/04/07 00:37:56;;;;;;;21.33;9.75;;;;;;;;;;5020262;28;20185;-54
2023/04/07 00:40:21;;;;;;;15.40;9.25;;;;;;;;;;5016009;28;20037;-54
2023/04/07 00:42:46;;;;;;;15.02;8.30;;;;;;;;;;5001071;28;20455;-56
2023/04/07 00:45:12;;;;;;;16.02;9.25;;;;;;;;;;4996866;28;20049;-53
2023/04/07 00:47:37;;;;;;;13.15;8.48;;;;;;;;;;5008057;28;20040;-55
2023/04/07 00:50:03;;;;;;;12.63;7.78;;;;;;;;;;5008428;28;20183;-50
2023/04/07 00:52:29;;;;;;;12.80;8.18;;;;;;;;;;5002592;28;20036;-54
2023/04/07 00:54:54;;;;;;;12.52;7.93;;;;;;;;;;5011043;28;20095;-52
2023/04/07 00:57:21;;;;;;;13.65;8.00;;;;;;;;;;5003207;28;20607;-53
2023/04/07 00:59:47;;;;;;;13.90;8.90;;;;;;;;;;5020072;28;20030;-55
2023/04/07 01:02:15;;;;;;;13.32;8.65;;;;;;;;;;5004411;28;20034;-53
2023/04/07 01:04:50;;;;;;;13.95;8.10;;;;;;;;;;5020958;28;20033;-56
2023/04/07 01:07:22;;;;;;;12.88;8.18;;;;;;;;;;4997437;23;20090;-52
2023/04/07 01:10:01;;;;;;;13.77;8.65;;;;;;;;;;4965457;28;20046;-56
2023/04/07 01:12:40;;;;;;;14.43;8.50;;;;;;;;;;4975550;28;20096;-51
2023/04/07 01:15:09;;;;;;;13.63;8.38;;;;;;;;;;4972263;28;20046;-52
2023/04/07 01:17:42;;;;;;;12.38;8.15;;;;;;;;;;4980823;28;20038;-52
2023/04/07 01:20:10;;;;;;;15.30;8.10;;;;;;;;;;4976071;28;20161;-54
2023/04/07 01:22:40;;;;;;;12.25;7.95;;;;;;;;;;4986385;28;20117;-54
2023/04/07 01:25:08;;;;;;;15.65;8.25;;;;;;;;;;4989027;28;20054;-54
2023/04/07 01:27:53;;;;;;;15.27;8.10;;;;;;;;;;4978075;28;20037;-56
2023/04/07 01:30:19;;;;;;;11.30;7.63;;;;;;;;;;4970687;28;20534;-57
2023/04/07 01:32:48;;;;;;;11.07;7.20;;;;;;;;;;4973913;28;20047;-57
2023/04/07 01:35:15;;;;;;;12.80;7.80;;;;;;;;;;4991199;28;20034;-54
2023/04/07 01:37:41;;;;;;;14.77;8.52;;;;;;;;;;4971747;28;20365;-58
2023/04/07 01:40:07;;;;;;;13.85;7.97;;;;;;;;;;4973659;28;20034;-56
2023/04/07 01:42:33;;;;;;;13.27;8.07;;;;;;;;;;4972883;28;20131;-55
2023/04/07 01:45:00;;;;;;;14.43;8.15;;;;;;;;;;4974148;28;20511;-58
2023/04/07 01:47:29;;;;;;;14.50;8.57;;;;;;;;;;4979829;28;20363;-55
2023/04/07 01:49:55;;;;;;;15.90;9.10;;;;;;;;;;4973943;28;20380;-53
2023/04/07 01:52:21;;;;;;;14.60;9.02;;;;;;;;;;4970126;28;20054;-56
2023/04/07 01:54:46;;;;;;;14.23;8.20;;;;;;;;;;4972178;28;20031;-51
2023/04/07 01:57:12;;;;;;;16.08;8.32;;;;;;;;;;4961655;28;20037;-56
2023/04/07 01:59:37;;;;;;;16.13;9.00;;;;;;;;;;4971021;28;20037;-56
2023/04/07 02:02:03;;;;;;;15.80;8.25;;;;;;;;;;4966974;28;20038;-53
2023/04/07 02:04:39;;;;;;;16.33;9.00;;;;;;;;;;4977207;28;20045;-53
2023/04/07 02:07:08;;;;;;;14.75;8.40;;;;;;;;;;4976891;28;20038;-52
2023/04/07 02:09:39;;;;;;;15.80;8.93;;;;;;;;;;4958900;28;20039;-53
2023/04/07 02:12:09;;;;;;;16.35;9.32;;;;;;;;;;4955569;28;20066;-52
2023/04/07 02:14:39;;;;;;;15.55;9.13;;;;;;;;;;4982059;28;20058;-52
2023/04/07 02:17:08;;;;;;;15.80;9.15;;;;;;;;;;4966236;28;20034;-57
2023/04/07 02:19:36;;;;;;;16.35;9.18;;;;;;;;;;4966259;28;20085;-54
2023/04/07 02:22:05;;;;;;;15.70;9.45;;;;;;;;;;4969493;28;20057;-54
2023/04/07 02:24:30;;;;;;;17.42;9.63;;;;;;;;;;4977084;28;20077;-56
2023/04/07 02:26:56;;;;;;;19.52;9.50;;;;;;;;;;4977951;28;20061;-57
2023/04/07 02:29:23;;;;;;;;;;;;;;;;;;4994199;28;20126;-52
2023/04/07 02:31:48;;;;;;;17.13;9.53;;;;;;;;;;4992536;28;20016;-56
2023/04/07 02:34:13;;;;;;;14.68;8.15;;;;;;;;;;4975826;28;20039;-55
2023/04/07 02:36:39;;;;;;;16.98;9.75;;;;;;;;;;4973841;28;20038;-51
2023/04/07 02:39:06;;;;;;;17.02;9.80;;;;;;;;;;4974814;28;20034;-53
2023/04/07 02:41:31;;;;;;;17.45;9.10;;;;;;;;;;4974816;28;20035;-52
2023/04/07 02:43:58;;;;;;;17.02;9.32;;;;;;;;;;4976879;28;20085;-57
2023/04/07 02:46:24;;;;;;;16.15;9.77;;;;;;;;;;4970855;28;20042;-54
2023/04/07 02:48:50;;;;;;;20.23;10.07;;;;;;;;;;4956219;28;20097;-54
2023/04/07 02:51:15;;;;;;;16.33;9.70;;;;;;;;;;4977569;28;20066;-53
2023/04/07 02:53:41;;;;;;;17.38;9.40;;;;;;;;;;4971527;28;20122;-54
2023/04/07 02:56:06;;;;;;;18.63;9.45;;;;;;;;;;4970927;28;20031;-53
2023/04/07 02:58:31;;;;;;;17.88;10.10;;;;;;;;;;4972106;28;20037;-54
2023/04/07 03:00:57;;;;;;;20.35;10.32;;;;;;;;;;4971293;28;20550;-51
2023/04/07 03:03:26;;;;;;;20.63;10.73;;;;;;;;;;4966847;28;20046;-51
2023/04/07 03:06:05;;;;;;;19.88;10.50;;;;;;;;;;4967520;28;20034;-53
2023/04/07 03:08:31;;;;;;;20.85;9.60;;;;;;;;;;4977075;28;20073;-53
2023/04/07 03:10:57;;;;;;;21.45;10.73;;;;;;;;;;4966320;28;20066;-56
2023/04/07 03:13:28;;;;;;;16.15;9.75;;;;;;;;;;4965308;28;20053;-53
2023/04/07 03:15:54;;;;;;;15.77;9.32;;;;;;;;;;4971058;28;20030;-54
2023/04/07 03:18:20;;;;;;;15.68;10.05;;;;;;;;;;4974447;28;20077;-56
2023/04/07 03:20:47;;;;;;;17.55;9.50;;;;;;;;;;4951605;28;20027;-53
2023/04/07 03:23:12;;;;;;;17.67;10.23;;;;;;;;;;4958039;28;20038;-56
2023/04/07 03:25:38;;;;;;;16.83;9.85;;;;;;;;;;4973283;28;20480;-51
2023/04/07 03:28:04;;;;;;;20.33;10.30;;;;;;;;;;4961895;28;20046;-53
2023/04/07 03:30:32;;;;;;;18.15;10.02;;;;;;;;;;4972925;28;20138;-56
2023/04/07 03:32:57;;;;;;;17.67;9.70;;;;;;;;;;4970956;28;20130;-56
2023/04/07 03:35:23;;;;;;;19.23;9.73;;;;;;;;;;4974092;28;20038;-52
2023/04/07 03:37:51;;;;;;;15.10;9.07;;;;;;;;;;4974836;28;20031;-53
2023/04/07 03:40:17;;;;;;;18.25;10.52;;;;;;;;;;4975649;28;20078;-51
2023/04/07 03:42:44;;;;;;;19.60;10.05;;;;;;;;;;4970629;28;20062;-54
2023/04/07 03:45:11;;;;;;;17.17;10.05;;;;;;;;;;4971604;28;20027;-56
2023/04/07 03:47:41;;;;;;;18.52;10.45;;;;;;;;;;4973566;28;20495;-53
2023/04/07 03:50:07;;;;;;;15.93;9.48;;;;;;;;;;4970483;28;20036;-52
2023/04/07 03:52:39;;;;;;;17.30;9.80;;;;;;;;;;4980873;28;20133;-53
2023/04/07 03:55:15;;;;;;;19.35;9.77;;;;;;;;;;4970094;28;20444;-53
2023/04/07 03:57:40;;;;;;;17.38;10.38;;;;;;;;;;4970647;28;20038;-54
2023/04/07 04:00:06;;;;;;;20.38;10.50;;;;;;;;;;4974956;28;20081;-54
2023/04/07 04:02:41;;;;;;;20.23;10.70;;;;;;;;;;4972980;28;20031;-54
2023/04/07 04:05:08;;;;;;;21.83;11.38;;;;;;;;;;4968265;28;20035;-53
2023/04/07 04:07:34;;;;;;;20.13;11.45;;;;;;;;;;4965595;28;20779;-53
2023/04/07 04:10:03;;;;;;;18.80;11.25;;;;;;;;;;4962234;28;20038;-54
2023/04/07 04:12:32;;;;;;;21.27;10.85;;;;;;;;;;4969147;28;20045;-51
2023/04/07 04:15:04;;;;;;;22.48;11.25;;;;;;;;;;4967153;28;20063;-54
2023/04/07 04:17:30;;;;;;;22.10;12.10;;;;;;;;;;4970892;28;20045;-56
2023/04/07 04:19:55;;;;;;;19.52;11.05;;;;;;;;;;4974639;28;20042;-54
2023/04/07 04:22:26;;;;;;;17.45;10.75;;;;;;;;;;4962019;28;20043;-54
2023/04/07 04:24:55;;;;;;;21.23;11.57;;;;;;;;;;4964925;28;20089;-56
2023/04/07 04:27:22;;;;;;;21.08;12.18;;;;;;;;;;4973382;28;20061;-55
2023/04/07 04:29:53;;;;;;;22.55;11.88;;;;;;;;;;4962702;28;20039;-53
2023/04/07 04:32:27;;;;;;;24.73;12.15;;;;;;;;;;4969332;28;20134;-54
2023/04/07 04:34:52;;;;;;;24.42;11.77;;;;;;;;;;4964400;28;20145;-57
2023/04/07 04:37:19;;;;;;;23.08;12.30;;;;;;;;;;4971386;28;20028;-56
2023/04/07 04:39:45;;;;;;;21.88;12.43;;;;;;;;;;4966927;28;20045;-55
2023/04/07 04:42:12;;;;;;;21.58;11.70;;;;;;;;;;4967091;28;20178;-53
2023/04/07 04:44:38;;;;;;;21.60;12.32;;;;;;;;;;4974333;28;20121;-55
2023/04/07 04:47:04;;;;;;;24.25;12.50;;;;;;;;;;4974050;28;20031;-55
2023/04/07 04:49:31;;;;;;;28.45;13.98;;;;;;;;;;4975352;28;20045;-56
2023/04/07 04:51:59;;;;;;;20.48;11.10;;;;;;;;;;4974100;28;20042;-55
2023/04/07 04:54:26;;;;;;;24.40;12.60;;;;;;;;;;4968275;28;20039;-53
2023/04/07 04:56:52;;;;;;;26.67;13.35;;;;;;;;;;4971028;28;20119;-56
2023/04/07 04:59:18;;;;;;;27.42;14.02;;;;;;;;;;4973236;28;20038;-56
2023/04/07 05:01:54;;;;;;;25.93;14.67;;;;;;;;;;4966704;28;20507;-56
2023/04/07 05:04:20;;;;;;;25.23;13.82;;;;;;;;;;4973840;28;20304;-56
2023/04/07 05:06:53;;;;;;;32.03;19.10;;;;;;;;;;4968724;28;20702;-52
2023/04/07 05:09:23;;;;;;;45.70;24.38;;;;;;;;;;4967344;28;20038;-53
2023/04/07 05:11:48;;;;;;;58.53;32.70;;;;;;;;;;4949983;28;20557;-51
2023/04/07 05:14:14;;;;;;;58.80;30.85;;;;;;;;;;4964068;28;20051;-53
2023/04/07 05:16:45;;;;;;;50.08;27.27;;;;;;;;;;4964424;28;20054;-55
2023/04/07 05:19:16;;;;;;;30.20;17.80;;;;;;;;;;4969249;28;20137;-52
2023/04/07 05:21:41;;;;;;;31.90;16.25;;;;;;;;;;4968636;28;20126;-55
2023/04/07 05:24:08;;;;;;;27.00;14.10;;;;;;;;;;4968965;28;20024;-55
2023/04/07 05:26:33;;;;;;;25.65;13.73;;;;;;;;;;4983614;28;20038;-55
2023/04/07 05:29:01;;;;;;;23.10;13.10;;;;;;;;;;4970473;28;20114;-55
2023/04/07 05:31:27;;;;;;;24.70;14.05;;;;;;;;;;4971992;28;20047;-55
2023/04/07 05:33:55;;;;;;;34.20;14.25;;;;;;;;;;4970592;28;20472;-56
2023/04/07 05:36:23;;;;;;;24.15;13.15;;;;;;;;;;4969702;28;20049;-53
2023/04/07 05:38:53;;;;;;;23.55;13.05;;;;;;;;;;4985187;28;20068;-56
2023/04/07 05:41:18;;;;;;;23.38;13.63;;;;;;;;;;4964802;28;20118;-57
2023/04/07 05:43:43;;;;;;;20.83;12.30;;;;;;;;;;4965333;28;20030;-52
2023/04/07 05:46:09;;;;;;;21.73;12.32;;;;;;;;;;4974583;28;20023;-55
2023/04/07 05:48:44;;;;;;;21.65;12.38;;;;;;;;;;4969840;28;20778;-55
2023/04/07 05:51:10;;;;;;;23.05;12.85;;;;;;;;;;4957652;28;20039;-58
2023/04/07 05:53:35;;;;;;;22.98;12.48;;;;;;;;;;4971883;28;20042;-56
2023/04/07 05:56:00;;;;;;;22.45;12.90;;;;;;;;;;4977506;28;20085;-52
2023/04/07 05:58:42;;;;;;;22.25;13.02;;;;;;;;;;4977910;28;20069;-55
2023/04/07 06:01:09;;;;;;;21.85;12.25;;;;;;;;;;4981754;28;20030;-56
2023/04/07 06:03:35;;;;;;;18.90;11.45;;;;;;;;;;4955410;28;20034;-56
2023/04/07 06:06:10;;;;;;;21.20;11.18;;;;;;;;;;4982869;28;20039;-55
2023/04/07 06:08:35;;;;;;;22.73;12.07;;;;;;;;;;4973855;28;20052;-57
2023/04/07 06:11:01;;;;;;;21.17;12.57;;;;;;;;;;4970932;28;20050;-55
2023/04/07 06:13:26;;;;;;;29.10;15.00;;;;;;;;;;4954266;28;20099;-59
2023/04/07 06:15:53;;;;;;;32.63;17.00;;;;;;;;;;4970546;28;20081;-56
2023/04/07 06:18:18;;;;;;;31.58;16.73;;;;;;;;;;4972882;28;20404;-55
2023/04/07 06:20:44;;;;;;;27.27;15.35;;;;;;;;;;4978799;28;20045;-51
2023/04/07 06:23:09;;;;;;;26.63;14.38;;;;;;;;;;4960675;28;20385;-57
2023/04/07 06:25:34;;;;;;;26.17;13.13;;;;;;;;;;4969380;28;20035;-50
2023/04/07 06:28:00;;;;;;;25.25;14.38;;;;;;;;;;4974969;28;20038;-56
2023/04/07 06:30:26;;;;;;;25.08;13.65;;;;;;;;;;4973088;28;20547;-53
2023/04/07 06:32:51;;;;;;;25.00;14.60;;;;;;;;;;4973514;28;20126;-55
2023/04/07 06:35:17;;;;;;;25.98;14.63;;;;;;;;;;4971220;28;20031;-52
2023/04/07 06:37:42;;;;;;;24.75;13.95;;;;;;;;;;4965279;28;20408;-55
2023/04/07 06:40:07;;;;;;;21.88;12.93;;;;;;;;;;4975811;28;20035;-52
2023/04/07 06:42:33;;;;;;;22.38;12.82;;;;;;;;;;4968517;28;20251;-52
2023/04/07 06:45:09;;;;;;;21.65;12.63;;;;;;;;;;4965069;28;20476;-53
2023/04/07 06:47:34;;;;;;;25.25;12.90;;;;;;;;;;4970836;28;20050;-55
2023/04/07 06:50:00;;;;;;;21.15;12.65;;;;;;;;;;4969181;28;20041;-51
2023/04/07 06:52:25;;;;;;;24.75;13.88;;;;;;;;;;4964179;28;20038;-55
2023/04/07 06:54:50;;;;;;;24.33;12.88;;;;;;;;;;4967780;28;20519;-57
2023/04/07 06:57:16;;;;;;;22.20;12.80;;;;;;;;;;4973111;28;20027;-53
2023/04/07 06:59:41;;;;;;;23.60;12.52;;;;;;;;;;4966627;28;20134;-56
2023/04/07 07:02:06;;;;;;;28.15;13.13;;;;;;;;;;4964480;28;20106;-55
2023/04/07 07:04:33;;;;;;;20.27;12.18;;;;;;;;;;4979251;28;20471;-55
2023/04/07 07:06:58;;;;;;;23.08;13.40;;;;;;;;;;4973491;28;20125;-55
2023/04/07 07:09:23;;;;;;;22.70;13.15;;;;;;;;;;4978229;28;20121;-59
2023/04/07 07:11:49;;;;;;;25.45;12.82;;;;;;;;;;4967529;28;20448;-54
2023/04/07 07:14:14;;;;;;;20.08;12.02;;;;;;;;;;4972638;28;20095;-56
2023/04/07 07:16:40;;;;;;;24.83;13.38;;;;;;;;;;4971857;28;20030;-55
2023/04/07 07:19:05;;;;;;;21.92;11.43;;;;;;;;;;4970199;28;20083;-56
2023/04/07 07:21:31;;;;;;;21.90;13.52;;;;;;;;;;4970179;28;20113;-55
2023/04/07 07:23:56;;;;;;;21.00;13.05;;;;;;;;;;4975328;28;20487;-52
2023/04/07 07:26:21;;;;;;;18.67;12.32;;;;;;;;;;4974004;28;20022;-53
2023/04/07 07:28:47;;;;;;;19.63;11.90;;;;;;;;;;4970973;28;20114;-58
2023/04/07 07:31:13;;;;;;;18.42;12.13;;;;;;;;;;4971551;28;20094;-56
2023/04/07 07:33:40;;;;;;;25.27;14.77;;;;;;;;;;4975755;28;20090;-57
2023/04/07 07:36:05;;;;;;;26.17;13.30;;;;;;;;;;4969650;28;20227;-52
2023/04/07 07:38:31;;;;;;;22.40;12.40;;;;;;;;;;4968461;28;20384;-57
2023/04/07 07:40:56;;;;;;;21.63;11.93;;;;;;;;;;4974734;28;20026;-57
2023/04/07 07:43:21;;;;;;;20.27;11.88;;;;;;;;;;4972219;28;20475;-53
2023/04/07 07:45:47;;;;;;;21.58;11.73;;;;;;;;;;4970251;28;20149;-54
2023/04/07 07:48:12;;;;;;;15.63;11.02;;;;;;;;;;4970048;28;20038;-51
2023/04/07 07:50:37;;;;;;;16.50;10.93;;;;;;;;;;4973200;28;20766;-56
2023/04/07 07:53:03;;;;;;;15.38;9.65;;;;;;;;;;4969083;28;20459;-55
2023/04/07 07:55:28;;;;;;;18.90;10.43;;;;;;;;;;4969450;28;20034;-53
2023/04/07 07:57:53;;;;;;;18.10;10.45;;;;;;;;;;4963620;28;20046;-57
2023/04/07 08:00:19;;;;;;;16.00;10.30;;;;;;;;;;4961455;28;20089;-55
2023/04/07 08:02:44;;;;;;;16.08;9.82;;;;;;;;;;4957724;28;20389;-53
2023/04/07 08:05:10;;;;;;;18.83;10.25;;;;;;;;;;4962541;28;20046;-51
2023/04/07 08:07:35;;;;;;;13.70;9.30;;;;;;;;;;4967150;28;20118;-56
2023/04/07 08:10:00;;;;;;;14.60;9.55;;;;;;;;;;4968527;28;20034;-55
2023/04/07 08:12:26;;;;;;;16.25;9.10;;;;;;;;;;4967320;28;20054;-57
2023/04/07 08:14:51;;;;;;;16.50;9.57;;;;;;;;;;4974063;28;20038;-55
2023/04/07 08:17:16;;;;;;;13.48;9.10;;;;;;;;;;4975660;28;20061;-52
2023/04/07 08:19:42;;;;;;;14.88;9.13;;;;;;;;;;4976412;28;20031;-58
2023/04/07 08:22:07;;;;;;;14.95;8.75;;;;;;;;;;4973341;28;20042;-53
2023/04/07 08:24:33;;;;;;;13.55;8.18;;;;;;;;;;4972734;28;20037;-53
2023/04/07 08:26:58;;;;;;;14.10;8.52;;;;;;;;;;4975297;28;20062;-52
2023/04/07 08:29:23;;;;;;;12.23;8.07;;;;;;;;;;4974412;28;20113;-56
2023/04/07 08:31:49;;;;;;;12.63;7.90;;;;;;;;;;4971743;28;20059;-55
2023/04/07 08:34:15;;;;;;;11.98;8.15;;;;;;;;;;4973015;28;20039;-53
2023/04/07 08:36:40;;;;;;;12.52;8.00;;;;;;;;;;4971421;28;20031;-57
2023/04/07 08:39:06;;;;;;;10.45;7.20;;;;;;;;;;4969723;28;20395;-55
2023/04/07 08:41:39;;;;;;;12.82;7.43;;;;;;;;;;4970164;28;20113;-55
2023/04/07 08:44:06;;;;;;;15.98;7.75;;;;;;;;;;4971874;28;20038;-56
2023/04/07 08:46:32;;;;;;;12.13;7.55;;;;;;;;;;4967228;28;20030;-57
2023/04/07 08:48:58;;;;;;;10.13;7.05;;;;;;;;;;4974729;28;20038;-56
2023/04/07 08:51:26;;;;;;;10.80;6.90;;;;;;;;;;4971662;28;20023;-57
2023/04/07 08:53:52;;;;;;;9.45;6.53;;;;;;;;;;4969278;28;20031;-56
2023/04/07 08:56:17;;;;;;;9.77;6.18;;;;;;;;;;4966152;28;20042;-56
2023/04/07 08:58:44;;;;;;;10.27;6.30;;;;;;;;;;4967988;28;20022;-58
2023/04/07 09:01:10;;;;;;;11.35;6.85;;;;;;;;;;4966949;28;20155;-56
2023/04/07 09:03:36;;;;;;;8.93;6.38;;;;;;;;;;4965479;28;20570;-54
2023/04/07 09:06:04;;;;;;;10.30;6.22;;;;;;;;;;4970091;28;20034;-56
2023/04/07 09:08:29;;;;;;;9.25;6.28;;;;;;;;;;4970821;28;20038;-54
2023/04/07 09:10:55;;;;;;;9.60;6.55;;;;;;;;;;4975880;28;20146;-54
2023/04/07 09:13:21;;;;;;;11.25;6.43;;;;;;;;;;4966141;28;20400;-55
2023/04/07 09:15:46;;;;;;;12.60;6.45;;;;;;;;;;4971427;28;20542;-55
2023/04/07 09:18:13;;;;;;;9.18;6.22;;;;;;;;;;4972967;28;20046;-58
2023/04/07 09:20:56;;;;;;;9.77;6.18;;;;;;;;;;4967983;28;20037;-51
2023/04/07 09:23:28;;;;;;;9.85;6.28;;;;;;;;;;4979400;28;20085;-52
2023/04/07 09:25:54;;;;;;;11.68;6.85;;;;;;;;;;4974387;28;20117;-56
2023/04/07 09:28:19;;;;;;;11.95;6.65;;;;;;;;;;4971302;28;20039;-53
2023/04/07 09:30:51;;;;;;;11.73;7.03;;;;;;;;;;4966846;28;20033;-55
2023/04/07 09:33:25;;;;;;;11.07;6.28;;;;;;;;;;4986089;28;20374;-57
2023/04/07 09:35:52;;;;;;;11.73;6.80;;;;;;;;;;4970286;28;20038;-55
2023/04/07 09:38:17;;;;;;;14.52;6.97;;;;;;;;;;4987228;28;20040;-55
2023/04/07 09:40:42;;;;;;;10.88;6.47;;;;;;;;;;4969501;28;20085;-55
2023/04/07 09:43:13;;;;;;;9.88;6.47;;;;;;;;;;4969291;28;20034;-58
2023/04/07 09:45:39;;;;;;;10.35;6.45;;;;;;;;;;4965894;28;20043;-54
2023/04/07 09:48:16;;;;;;;10.70;6.55;;;;;;;;;;4968360;28;20038;-54
2023/04/07 09:50:44;;;;;;;11.13;6.60;;;;;;;;;;4969528;28;20035;-53
2023/04/07 09:53:10;;;;;;;11.15;7.32;;;;;;;;;;4970567;28;20033;-57
2023/04/07 09:55:35;;;;;;;10.00;6.15;;;;;;;;;;4969609;28;20607;-60
2023/04/07 09:58:02;;;;;;;10.30;6.32;;;;;;;;;;4968590;28;20039;-56
2023/04/07 10:00:27;;;;;;;11.80;6.88;;;;;;;;;;4969405;28;20106;-54
2023/04/07 10:02:53;;;;;;;12.30;6.20;;;;;;;;;;4974647;28;20077;-55
2023/04/07 10:05:21;;;;;;;12.63;5.60;;;;;;;;;;4966129;28;20039;-57
2023/04/07 10:07:47;;;;;;;10.48;6.50;;;;;;;;;;4968716;28;20026;-53
2023/04/07 10:10:12;;;;;;;10.05;6.65;;;;;;;;;;4970780;28;20027;-54
2023/04/07 10:12:37;;;;;;;11.70;6.32;;;;;;;;;;4969677;28;20042;-55
2023/04/07 10:15:03;;;;;;;9.70;5.80;;;;;;;;;;4968826;28;20034;-57
2023/04/07 10:17:30;;;;;;;11.40;5.93;;;;;;;;;;4970122;28;20082;-55
2023/04/07 10:19:57;;;;;;;10.63;6.20;;;;;;;;;;4975773;28;20624;-53
2023/04/07 10:22:23;;;;;;;14.55;6.30;;;;;;;;;;4979768;28;20067;-53
2023/04/07 10:24:54;;;;;;;10.75;5.10;;;;;;;;;;4963395;28;20097;-53
2023/04/07 10:27:30;;;;;;;12.77;6.05;;;;;;;;;;4963171;28;20030;-56
2023/04/07 10:29:57;;;;;;;13.13;6.00;;;;;;;;;;4968452;28;20547;-54
2023/04/07 10:32:22;;;;;;;10.25;5.88;;;;;;;;;;4970006;28;20093;-54
2023/04/07 10:34:53;;;;;;;11.95;6.20;;;;;;;;;;4961695;28;20050;-56
2023/04/07 10:37:21;;;;;;;8.80;5.18;;;;;;;;;;4962704;28;20035;-55
2023/04/07 10:39:47;;;;;;;11.43;5.55;;;;;;;;;;4969887;28;20613;-57
2023/04/07 10:42:31;;;;;;;9.40;5.22;;;;;;;;;;4964917;28;20043;-55
2023/04/07 10:44:58;;;;;;;10.55;5.35;;;;;;;;;;4958552;28;20030;-57
2023/04/07 10:47:23;;;;;;;;;;;;;;;;;;4958241;28;20038;-56
2023/04/07 10:50:08;;;;;;;10.50;5.53;;;;;;;;;;4963461;28;19913;-58
2023/04/07 10:52:33;;;;;;;8.10;4.85;;;;;;;;;;4969234;28;20670;-55
2023/04/07 10:55:17;;;;;;;9.98;5.30;;;;;;;;;;4962692;28;20031;-56
2023/04/07 10:58:02;;;;;;;9.77;4.75;;;;;;;;;;4966372;28;20035;-55
2023/04/07 11:00:28;;;;;;;11.48;5.28;;;;;;;;;;4961896;28;20019;-54
2023/04/07 11:02:53;;;;;;;9.35;4.85;;;;;;;;;;4962521;28;20037;-56
2023/04/07 11:05:20;;;;;;;8.40;4.28;;;;;;;;;;4959965;28;20536;-61
2023/04/07 11:07:48;;;;;;;12.35;4.60;;;;;;;;;;4965658;28;21652;-56
2023/04/07 11:10:18;;;;;;;11.48;4.15;;;;;;;;;;4959711;28;20555;-57
2023/04/07 11:12:43;;;;;;;9.40;4.53;;;;;;;;;;4967764;28;20446;-57
2023/04/07 11:15:19;;;;;;;8.15;4.30;;;;;;;;;;4964050;28;20034;-54
2023/04/07 11:17:44;;;;;;;8.98;3.92;;;;;;;;;;4958235;28;20336;-59
2023/04/07 11:20:10;;;;;;;9.48;4.18;;;;;;;;;;4963648;28;20076;-57
2023/04/07 11:22:36;;;;;;;6.80;3.97;;;;;;;;;;4960012;28;20030;-56
2023/04/07 11:25:01;;;;;;;8.02;4.22;;;;;;;;;;4965213;28;20110;-56
2023/04/07 11:27:27;;;;;;;9.15;4.43;;;;;;;;;;4963098;28;20049;-59
2023/04/07 11:29:53;;;;;;;7.18;4.00;;;;;;;;;;4960046;28;20113;-57
2023/04/07 11:32:23;;;;;;;6.88;3.60;;;;;;;;;;4970324;28;20511;-55
2023/04/07 11:34:49;;;;;;;8.95;3.70;;;;;;;;;;4957545;28;20023;-57
2023/04/07 11:37:21;;;;;;;6.78;3.40;;;;;;;;;;4965659;28;20101;-50
2023/04/07 11:39:50;;;;;;;8.52;3.58;;;;;;;;;;4960285;28;20047;-59
2023/04/07 11:42:29;;;;;;;7.13;3.42;;;;;;;;;;4960915;28;20042;-52
2023/04/07 11:44:55;;;;;;;8.50;4.20;;;;;;;;;;4970372;28;20046;-57
2023/04/07 11:47:21;;;;;;;6.45;3.10;;;;;;;;;;4963125;28;20031;-51
2023/04/07 11:49:47;;;;;;;8.70;4.00;;;;;;;;;;4956865;28;20105;-52
2023/04/07 11:52:12;;;;;;;18.60;4.25;;;;;;;;;;4963307;28;20125;-58
2023/04/07 11:54:39;;;;;;;8.70;3.78;;;;;;;;;;4958918;28;20080;-55
2023/04/07 11:57:04;;;;;;;10.45;3.65;;;;;;;;;;4968776;28;20108;-58
2023/04/07 11:59:30;;;;;;;8.70;3.67;;;;;;;;;;4958762;28;20026;-56
2023/04/07 12:01:56;;;;;;;7.50;3.75;;;;;;;;;;4975690;28;20041;-52
2023/04/07 12:04:21;;;;;;;10.68;3.78;;;;;;;;;;4962127;28;20038;-51
2023/04/07 12:06:47;;;;;;;7.93;3.70;;;;;;;;;;4960692;28;20038;-52
2023/04/07 12:09:29;;;;;;;9.50;3.40;;;;;;;;;;4963915;28;20063;-53
2023/04/07 12:11:55;;;;;;;9.50;3.30;;;;;;;;;;4959595;28;20757;-51
2023/04/07 12:14:21;;;;;;;10.20;3.30;;;;;;;;;;4961252;28;20026;-56
2023/04/07 12:16:46;;;;;;;5.82;2.60;;;;;;;;;;4962338;28;20085;-57
2023/04/07 12:19:11;;;;;;;7.00;2.92;;;;;;;;;;4955566;28;20054;-55
2023/04/07 12:21:37;;;;;;;7.72;2.83;;;;;;;;;;4963468;28;20718;-52
2023/04/07 12:24:02;;;;;;;7.57;3.00;;;;;;;;;;4961121;28;21831;-56
2023/04/07 12:26:28;;;;;;;5.25;2.72;;;;;;;;;;4957943;28;20138;-54
2023/04/07 12:28:54;;;;;;;7.00;3.15;;;;;;;;;;4964969;28;20041;-54
2023/04/07 12:31:19;;;;;;;6.40;2.80;;;;;;;;;;4960709;28;20026;-53
2023/04/07 12:33:45;;;;;;;5.15;2.80;;;;;;;;;;4973676;28;20058;-56
2023/04/07 12:36:10;;;;;;;6.43;3.65;;;;;;;;;;4961886;28;20035;-57
2023/04/07 12:38:36;;;;;;;7.05;3.55;;;;;;;;;;4947975;28;20031;-56
2023/04/07 12:41:02;;;;;;;9.50;3.80;;;;;;;;;;4963638;28;20035;-57
2023/04/07 12:43:30;;;;;;;8.00;3.33;;;;;;;;;;4964050;28;20038;-54
2023/04/07 12:45:56;;;;;;;5.53;2.90;;;;;;;;;;4971442;28;20054;-57
2023/04/07 12:48:22;;;;;;;7.38;3.15;;;;;;;;;;4965512;28;20042;-57
2023/04/07 12:50:47;;;;;;;7.35;3.75;;;;;;;;;;4960676;28;20111;-53
2023/04/07 12:53:13;;;;;;;7.40;3.17;;;;;;;;;;4966277;28;20050;-56
2023/04/07 12:55:38;;;;;;;12.63;3.70;;;;;;;;;;4961963;28;20035;-53
2023/04/07 12:58:03;;;;;;;8.07;3.25;;;;;;;;;;4969091;28;20058;-53
2023/04/07 13:00:29;;;;;;;8.60;3.20;;;;;;;;;;4964037;28;20030;-56
2023/04/07 13:02:55;;;;;;;10.65;3.80;;;;;;;;;;4962611;28;20675;-54
2023/04/07 13:05:20;;;;;;;8.27;4.03;;;;;;;;;;4967586;28;20030;-55
2023/04/07 13:07:46;;;;;;;7.95;4.30;;;;;;;;;;4960503;28;20395;-53
2023/04/07 13:10:11;;;;;;;10.57;3.97;;;;;;;;;;4965972;28;20030;-52
2023/04/07 13:12:36;;;;;;;10.65;4.30;;;;;;;;;;4957486;28;20046;-57
2023/04/07 13:15:02;;;;;;;10.63;3.88;;;;;;;;;;4959596;28;20031;-57
2023/04/07 13:17:28;;;;;;;10.88;5.00;;;;;;;;;;4965193;28;20023;-55
2023/04/07 13:19:53;;;;;;;8.88;4.82;;;;;;;;;;4961175;28;20114;-54
2023/04/07 13:22:19;;;;;;;15.75;6.78;;;;;;;;;;4965558;28;20036;-54
2023/04/07 13:24:44;;;;;;;9.45;4.63;;;;;;;;;;4964908;28;20042;-54
2023/04/07 13:27:09;;;;;;;12.50;4.72;;;;;;;;;;4959613;28;20058;-54
2023/04/07 13:29:35;;;;;;;9.52;4.75;;;;;;;;;;4963871;28;20039;-55
2023/04/07 13:32:07;;;;;;;8.68;4.70;;;;;;;;;;4954442;28;20042;-56
2023/04/07 13:34:33;;;;;;;6.97;4.53;;;;;;;;;;4970741;28;20034;-60
2023/04/07 13:37:00;;;;;;;12.00;6.45;;;;;;;;;;4966364;28;20043;-55
2023/04/07 13:39:25;;;;;;;11.60;6.30;;;;;;;;;;4954624;28;20039;-54
2023/04/07 13:41:50;;;;;;;10.30;5.10;;;;;;;;;;4960359;28;20096;-56
2023/04/07 13:44:16;;;;;;;13.23;5.82;;;;;;;;;;4954651;28;20070;-54
2023/04/07 13:46:41;;;;;;;14.27;6.70;;;;;;;;;;4959525;28;20042;-56
2023/04/07 13:49:07;;;;;;;11.55;4.70;;;;;;;;;;4963180;28;20050;-54
2023/04/07 13:51:32;;;;;;;7.90;4.03;;;;;;;;;;4959646;28;20154;-57
2023/04/07 13:53:58;;;;;;;8.63;4.35;;;;;;;;;;4953808;28;20055;-60
2023/04/07 13:56:23;;;;;;;9.25;4.15;;;;;;;;;;4962229;28;20110;-55
2023/04/07 13:58:49;;;;;;;8.25;3.80;;;;;;;;;;4963739;28;20030;-57
2023/04/07 14:01:14;;;;;;;8.80;3.85;;;;;;;;;;4966890;28;20039;-58
2023/04/07 14:03:41;;;;;;;9.50;4.30;;;;;;;;;;4957340;28;20598;-57
2023/04/07 14:06:07;;;;;;;9.98;3.85;;;;;;;;;;4965243;28;20105;-59
2023/04/07 14:08:32;;;;;;;9.88;4.10;;;;;;;;;;4958662;28;20034;-55
2023/04/07 14:10:57;;;;;;;7.82;3.35;;;;;;;;;;4955338;28;20050;-58
2023/04/07 14:13:22;;;;;;;6.60;3.40;;;;;;;;;;4965081;28;20038;-56
2023/04/07 14:15:48;;;;;;;7.93;3.65;;;;;;;;;;4963639;28;20034;-55
2023/04/07 14:18:13;;;;;;;6.88;3.08;;;;;;;;;;4966736;28;20035;-55
2023/04/07 14:20:39;;;;;;;6.50;3.15;;;;;;;;;;4980737;28;20045;-55
2023/04/07 14:23:04;;;;;;;6.50;3.13;;;;;;;;;;4962648;28;20054;-58
2023/04/07 14:25:30;;;;;;;8.23;2.92;;;;;;;;;;4967129;28;20026;-56
2023/04/07 14:27:56;;;;;;;6.65;3.00;;;;;;;;;;4965389;28;20033;-53